Aeroporto :
LOGIN :

Iscrizione | Disclaimer

   EN    FR    IT 

 










Sommario :    VFR   VFR Marginale   IFR   IFR Intensivo   IFR Molto Intensivo
Visibilità : 
Base nubi : 
>= 8 km
>= 3000ft
5 / 8 km
1000 / 3000 ft
1500m / 5 km
500 / 1000 ft
800 / 1500m
200 / 500 ft
< 800m
< 200 ft
Simboli :   Temporali  Nebbia  Neve Forte  Precipitazioni Forti  Vento > 20 kt
SIGMETs :   Varie  Temporali  Ghiacco  Turbolenza  Onda orograficha  Ceneri Vulcaniche






- Altitudine del aeroporto : 17 ft
- Codice IATA : MPL


LFMT - Montpellier Méditerranée

ULTIMO METAR :
  • 181730Z AUTO 16008KT CAVOK 25/17 Q1012 NOSIG

METARs OBSOLETI :
  • 181700Z AUTO 17006KT 140V220 CAVOK 25/17 Q1012 NOSIG
  • 181630Z AUTO 20006KT 170V230 CAVOK 25/17 Q1012 NOSIG
  • 181600Z AUTO 19005KT 150V230 CAVOK 26/17 Q1013 NOSIG
  • 181530Z AUTO 18005KT 150V230 CAVOK 26/16 Q1013 NOSIG
  • 181500Z AUTO 18004KT 140V230 CAVOK 26/16 Q1013 NOSIG
  • 181430Z AUTO 15003KT 090V240 CAVOK 25/16 Q1013 NOSIG
  • 181400Z AUTO 16004KT 090V190 CAVOK 25/16 Q1014 NOSIG
  • 181330Z AUTO 16004KT 110V210 CAVOK 25/16 Q1014 NOSIG

TAF TAF LFMT
Valido dal 18 a 15 ore il 19 a 15 ore UTC


181400Z 1815/1915 16005KT CAVOK
BECMG 1900/1902 02003KT
BECMG 1903/1905 OVC006
BECMG 1907/1909 12008KT BKN010
BECMG 1913/1915 CAVOK
ATIS : +33 4 67 13 11 70



MetMap, La meteo Aeronautica in un colpo d'occhio ! - Copyright ORBIFLY Dicembre 2007 - Disclaimer

ORBIFLY MET'MAP TEAM :

Programmazione e sviluppo : Alexandra Zaïnal
Concezione : Baudouin d'Aumeries
Supporto tecnico e logistico : Manuel Goepfert
Aiuto : Marc-Olivier Méhu
Aiuto per la traduzione : Arnaldo La Scala




FONTI E CREDITI :

   NOAA